Time;durP1;ratioP1;P1;durP2;ratioP2;P2;SDS_P1;SDS_P2;PMS_P1;PMS_P2;Temp;Humidity;BMP_temperature;BMP_pressure;BME280_temperature;BME280_humidity;BME280_pressure;Samples;Min_cycle;Max_cycle;Signal;HPM_P1;HPM_P2
2023/06/11 00:00:21;;;;;;;6.50;5.82;;;;;;;15.01;100.00;95768.69;1041923;28;20680;-73
2023/06/11 00:00:53;;;;;;;7.72;6.80;;;;;;;15.01;100.00;95766.06;1039559;28;20482;-74
2023/06/11 00:01:26;;;;;;;8.73;6.88;;;;;;;15.01;100.00;95769.47;1041881;28;20120;-74
2023/06/11 00:01:57;;;;;;;8.27;6.20;;;;;;;14.98;100.00;95764.00;1042692;28;20807;-75
2023/06/11 00:02:32;;;;;;;7.97;6.78;;;;;;;15.00;100.00;95767.13;1043819;28;20049;-73
2023/06/11 00:03:04;;;;;;;10.73;7.47;;;;;;;14.94;100.00;95757.72;1046144;28;20030;-75
2023/06/11 00:03:35;;;;;;;9.05;6.82;;;;;;;14.98;100.00;95761.34;1042469;28;20025;-73
2023/06/11 00:04:06;;;;;;;8.57;6.57;;;;;;;14.98;100.00;95769.28;1034094;28;20513;-73
2023/06/11 00:04:37;;;;;;;10.73;7.00;;;;;;;14.96;100.00;95768.78;1038576;28;20022;-74
2023/06/11 00:05:09;;;;;;;10.85;6.78;;;;;;;14.95;100.00;95760.06;1038470;28;20376;-73
2023/06/11 00:05:39;;;;;;;8.60;7.13;;;;;;;14.92;100.00;95760.63;1042728;28;20028;-74
2023/06/11 00:06:10;;;;;;;7.40;6.50;;;;;;;14.93;100.00;95770.16;1043261;28;20080;-74
2023/06/11 00:06:41;;;;;;;7.65;6.85;;;;;;;14.95;100.00;95764.56;1042771;28;20033;-74
2023/06/11 00:07:12;;;;;;;10.55;6.95;;;;;;;14.95;100.00;95769.84;1030136;28;20063;-73
2023/06/11 00:07:43;;;;;;;9.65;6.63;;;;;;;14.94;100.00;95760.38;1034553;28;20056;-74
2023/06/11 00:08:13;;;;;;;8.25;7.15;;;;;;;14.88;100.00;95761.50;1030379;28;20031;-75
2023/06/11 00:08:45;;;;;;;8.77;6.80;;;;;;;14.90;100.00;95760.16;1043015;28;20023;-73
2023/06/11 00:09:15;;;;;;;8.73;6.38;;;;;;;14.86;100.00;95756.53;1042589;28;20021;-74
2023/06/11 00:09:46;;;;;;;8.65;7.05;;;;;;;14.87;100.00;95758.09;1038661;28;20029;-74
2023/06/11 00:10:16;;;;;;;9.38;6.65;;;;;;;14.88;100.00;95759.66;1030668;28;20441;-73
2023/06/11 00:10:47;;;;;;;8.95;7.05;;;;;;;14.91;100.00;95763.59;1034480;28;20036;-75
2023/06/11 00:11:17;;;;;;;8.88;7.28;;;;;;;14.89;100.00;95755.97;1038070;28;20398;-73
2023/06/11 00:11:48;;;;;;;7.05;6.35;;;;;;;14.90;100.00;95762.03;1034258;28;20030;-74
2023/06/11 00:12:18;;;;;;;8.55;6.60;;;;;;;14.89;100.00;95760.44;1039300;28;20033;-71
2023/06/11 00:12:49;;;;;;;7.70;6.68;;;;;;;14.89;100.00;95763.06;1042497;28;20033;-74
2023/06/11 00:13:19;;;;;;;10.20;7.30;;;;;;;14.87;100.00;95759.97;1034500;28;20033;-75
2023/06/11 00:13:50;;;;;;;10.23;7.43;;;;;;;14.88;100.00;95761.50;1034422;28;20550;-74
2023/06/11 00:14:21;;;;;;;8.38;7.00;;;;;;;14.81;100.00;95749.47;1034352;28;20034;-74
2023/06/11 00:14:52;;;;;;;9.15;6.50;;;;;;;14.85;100.00;95761.03;1038622;28;20413;-74
2023/06/11 00:15:22;;;;;;;12.85;7.72;;;;;;;14.80;100.00;95758.47;1038848;28;20044;-74
2023/06/11 00:15:53;;;;;;;8.75;7.35;;;;;;;14.82;100.00;95758.97;1040577;28;20554;-73
2023/06/11 00:16:24;;;;;;;9.30;7.93;;;;;;;14.83;100.00;95757.88;1038347;28;20556;-74
2023/06/11 00:16:56;;;;;;;9.77;6.88;;;;;;;14.84;100.00;95761.31;1037968;28;20511;-73
2023/06/11 00:17:27;;;;;;;9.80;7.03;;;;;;;14.79;100.00;95754.25;1038876;28;20061;-74
2023/06/11 00:17:58;;;;;;;10.73;7.15;;;;;;;14.82;100.00;95766.09;1038712;28;20029;-74
2023/06/11 00:18:28;;;;;;;8.55;6.88;;;;;;;14.80;100.00;95758.47;1042454;28;20064;-74
2023/06/11 00:18:58;;;;;;;8.88;6.90;;;;;;;14.79;100.00;95756.13;1042718;28;20021;-74
2023/06/11 00:19:30;;;;;;;9.75;7.57;;;;;;;14.78;100.00;95760.59;1047162;28;20309;-74
2023/06/11 00:20:02;;;;;;;9.18;7.20;;;;;;;14.77;100.00;95761.69;1050807;28;20053;-75
2023/06/11 00:20:33;;;;;;;8.45;6.78;;;;;;;14.79;100.00;95767.47;1047043;28;20067;-73
2023/06/11 00:21:03;;;;;;;9.65;7.40;;;;;;;14.78;100.00;95760.59;1045779;28;20033;-74
2023/06/11 00:21:33;;;;;;;8.50;7.28;;;;;;;14.78;100.00;95760.59;1039645;28;20110;-74
2023/06/11 00:22:05;;;;;;;8.07;6.47;;;;;;;14.78;100.00;95765.88;1034859;28;20034;-74
2023/06/11 00:22:37;;;;;;;10.40;7.80;;;;;;;14.76;100.00;95760.13;1038614;28;20029;-73
2023/06/11 00:23:07;;;;;;;8.80;6.78;;;;;;;14.78;100.00;95765.88;1039926;28;20030;-73
2023/06/11 00:23:38;;;;;;;7.82;6.75;;;;;;;14.77;100.00;95766.97;1042336;28;20025;-74
2023/06/11 00:24:12;;;;;;;9.90;7.80;;;;;;;14.75;100.00;95755.88;1034688;28;20030;-74
2023/06/11 00:24:42;;;;;;;9.48;7.40;;;;;;;14.73;100.00;95759.91;1031546;28;20053;-73
2023/06/11 00:25:12;;;;;;;13.68;7.25;;;;;;;14.78;100.00;95771.16;1034465;28;20038;-74
2023/06/11 00:25:43;;;;;;;11.90;8.07;;;;;;;14.72;100.00;95761.78;1038581;28;20498;-74
2023/06/11 00:26:13;;;;;;;9.48;7.65;;;;;;;14.75;100.00;95760.38;1034392;28;20038;-74
2023/06/11 00:26:44;;;;;;;9.63;7.25;;;;;;;14.75;100.00;95763.81;1037654;28;20108;-74
2023/06/11 00:27:14;;;;;;;12.18;7.90;;;;;;;14.76;100.00;95761.97;1038402;28;20033;-74
2023/06/11 00:27:45;;;;;;;7.53;6.57;;;;;;;14.74;100.00;95764.88;1034511;28;20037;-75
2023/06/11 00:28:15;;;;;;;12.57;7.10;;;;;;;14.75;100.00;95766.44;1036215;28;20030;-73
2023/06/11 00:28:46;;;;;;;9.30;7.93;;;;;;;14.75;100.00;95761.16;1042453;28;20333;-74
2023/06/11 00:29:16;;;;;;;9.05;6.93;;;;;;;14.76;100.00;95767.25;1038522;28;20029;-73
2023/06/11 00:29:46;;;;;;;12.40;7.20;;;;;;;14.75;100.00;95766.44;1038590;28;20025;-74
2023/06/11 00:30:17;;;;;;;10.48;7.20;;;;;;;14.77;100.00;95760.91;1042688;28;20323;-74
2023/06/11 00:30:47;;;;;;;9.13;7.80;;;;;;;14.52;100.00;95725.91;1041401;28;20025;-72
2023/06/11 00:31:18;;;;;;;10.95;7.70;;;;;;;14.77;100.00;95761.69;1046264;28;20149;-73
2023/06/11 00:31:48;;;;;;;11.35;8.20;;;;;;;14.74;100.00;95770.19;1046175;28;20024;-74
2023/06/11 00:32:19;;;;;;;10.40;7.43;;;;;;;14.71;100.00;95764.69;1051410;28;20020;-74
2023/06/11 00:32:49;;;;;;;8.98;7.38;;;;;;;14.74;100.00;95764.13;1046871;28;20324;-73
2023/06/11 00:33:20;;;;;;;10.73;7.05;;;;;;;14.68;100.00;95755.47;1042929;28;20048;-73
2023/06/11 00:33:50;;;;;;;10.10;7.53;;;;;;;14.69;100.00;95762.34;1042812;28;20083;-72
2023/06/11 00:34:21;;;;;;;9.52;7.55;;;;;;;14.71;100.00;95767.31;1034507;28;20037;-74
2023/06/11 00:34:51;;;;;;;10.30;7.28;;;;;;;14.71;100.00;95764.69;1038403;28;20091;-74
2023/06/11 00:35:22;;;;;;;8.73;7.18;;;;;;;14.71;100.00;95765.47;1042768;28;20037;-73
2023/06/11 00:35:52;;;;;;;9.20;7.78;;;;;;;14.69;100.00;95757.06;1042717;28;20044;-74
2023/06/11 00:36:26;;;;;;;11.40;7.60;;;;;;;14.68;100.00;95765.25;1042613;28;20020;-73
2023/06/11 00:36:57;;;;;;;9.95;7.88;;;;;;;14.67;100.00;95767.13;1038374;28;20022;-74
2023/06/11 00:37:30;;;;;;;10.52;7.53;;;;;;;14.70;100.00;95766.53;1042663;28;20029;-73
2023/06/11 00:38:02;;;;;;;9.77;7.32;;;;;;;14.70;100.00;95769.19;1038380;28;20037;-73
2023/06/11 00:38:33;;;;;;;10.07;7.32;;;;;;;14.69;100.00;95767.63;1030034;28;20061;-73
2023/06/11 00:39:05;;;;;;;9.82;7.78;;;;;;;14.69;100.00;95767.63;1030303;28;20018;-74
2023/06/11 00:39:35;;;;;;;8.90;7.43;;;;;;;14.65;100.00;95761.31;1030412;28;20121;-73
2023/06/11 00:40:06;;;;;;;9.38;7.65;;;;;;;14.65;100.00;95766.59;1039024;28;20037;-73
2023/06/11 00:40:37;;;;;;;8.43;7.13;;;;;;;14.66;100.00;95762.13;1043098;28;20055;-74
2023/06/11 00:41:07;;;;;;;10.63;7.35;;;;;;;14.69;100.00;95766.81;1045935;28;20024;-74
2023/06/11 00:41:39;;;;;;;9.07;7.32;;;;;;;14.68;100.00;95766.03;1042183;28;20392;-75
2023/06/11 00:42:10;;;;;;;9.93;7.50;;;;;;;14.66;100.00;95762.13;1046552;28;20024;-74
2023/06/11 00:42:40;;;;;;;10.88;8.07;;;;;;;14.64;100.00;95753.72;1047076;28;20013;-74
2023/06/11 00:43:11;;;;;;;9.57;7.18;;;;;;;14.63;100.00;95763.50;1038158;28;20026;-74
2023/06/11 00:43:41;;;;;;;8.77;7.50;;;;;;;14.60;100.00;95764.06;1045312;28;20035;-74
2023/06/11 00:44:17;;;;;;;8.48;7.22;;;;;;;14.58;100.00;95766.19;1038351;28;20127;-74
2023/06/11 00:44:48;;;;;;;9.60;7.50;;;;;;;14.60;100.00;95762.19;1035141;28;20049;-74
2023/06/11 00:45:18;;;;;;;8.80;7.00;;;;;;;14.57;100.00;95762.00;1038898;28;20184;-74
2023/06/11 00:45:52;;;;;;;9.68;8.65;;;;;;;14.57;100.00;95756.72;1037474;28;20514;-73
2023/06/11 00:46:22;;;;;;;9.55;8.05;;;;;;;14.57;100.00;95764.63;1038377;28;20033;-74
2023/06/11 00:46:54;;;;;;;8.40;7.22;;;;;;;14.59;100.00;95765.13;1042474;28;20513;-73
2023/06/11 00:47:24;;;;;;;9.63;7.10;;;;;;;14.57;100.00;95765.41;1038342;28;20022;-74
2023/06/11 00:47:55;;;;;;;10.18;7.97;;;;;;;14.57;100.00;95767.28;1038586;28;20068;-74
2023/06/11 00:48:26;;;;;;;9.80;7.68;;;;;;;14.57;100.00;95765.41;1042371;28;20616;-74
2023/06/11 00:48:56;;;;;;;9.75;7.97;;;;;;;14.53;100.00;95759.13;1039193;28;20080;-73
2023/06/11 00:49:27;;;;;;;8.55;7.40;;;;;;;14.56;100.00;95766.50;1038537;28;20028;-73
2023/06/11 00:49:57;;;;;;;9.77;7.65;;;;;;;14.50;100.00;95758.91;1034498;28;20022;-72
2023/06/11 00:50:34;;;;;;;8.82;7.10;;;;;;;14.51;100.00;95760.50;1034250;28;20059;-74
2023/06/11 00:51:05;;;;;;;8.45;7.47;;;;;;;14.56;100.00;95763.84;1033789;28;20029;-74
2023/06/11 00:51:36;;;;;;;9.70;7.30;;;;;;;14.56;100.00;95768.34;1040549;28;20032;-74
2023/06/11 00:52:09;;;;;;;9.82;7.20;;;;;;;14.50;100.00;95758.91;1045847;28;20025;-74
2023/06/11 00:52:40;;;;;;;9.00;7.32;;;;;;;14.54;100.00;95762.56;1048183;28;20542;-74
2023/06/11 00:53:14;;;;;;;9.73;8.07;;;;;;;14.56;100.00;95768.34;1038334;28;20032;-74
2023/06/11 00:53:45;;;;;;;10.15;7.68;;;;;;;14.52;100.00;95762.06;1039913;28;20025;-74
2023/06/11 00:54:16;;;;;;;10.25;7.93;;;;;;;14.55;100.00;95767.56;1042388;28;20028;-72
2023/06/11 00:54:47;;;;;;;9.32;7.57;;;;;;;14.51;100.00;95757.84;1030459;28;20030;-75
2023/06/11 00:55:17;;;;;;;9.25;7.72;;;;;;;14.53;100.00;95761.78;1030241;28;20500;-72
2023/06/11 00:55:48;;;;;;;9.52;7.82;;;;;;;14.53;100.00;95768.91;1030155;28;20041;-74
2023/06/11 00:56:19;;;;;;;9.80;7.97;;;;;;;14.51;100.00;95765.78;1038425;28;20517;-74
2023/06/11 00:56:51;;;;;;;9.85;7.75;;;;;;;14.38;100.00;95746.94;1042670;28;20476;-74
2023/06/11 00:57:24;;;;;;;8.90;7.22;;;;;;;14.47;100.00;95759.47;1042396;28;20029;-74
2023/06/11 00:57:55;;;;;;;10.13;8.05;;;;;;;14.46;100.00;95761.34;1030246;28;20060;-74
2023/06/11 00:58:27;;;;;;;9.35;7.47;;;;;;;14.47;100.00;95759.47;1034249;28;20044;-73
2023/06/11 00:58:59;;;;;;;11.43;8.35;;;;;;;14.52;100.00;95760.22;1037331;28;21214;-73
2023/06/11 00:59:33;;;;;;;10.80;9.70;;;;;;;14.50;100.00;95764.19;1038370;28;20025;-73
2023/06/11 01:00:07;;;;;;;10.57;7.63;;;;;;;14.50;100.00;95761.53;1039039;28;20030;-73
2023/06/11 01:00:38;;;;;;;9.20;8.13;;;;;;;14.52;100.00;95760.22;1044090;28;20024;-73
2023/06/11 01:01:08;;;;;;;9.57;7.15;;;;;;;14.50;100.00;95761.53;1042254;28;20530;-74
2023/06/11 01:02:01;;;;;;;8.57;7.47;;;;;;;14.50;100.00;95764.19;1047356;28;20028;-75
2023/06/11 01:03:04;;;;;;;9.65;7.28;;;;;;;14.48;100.00;95763.66;1027610;28;20066;-73
2023/06/11 01:03:34;;;;;;;11.48;7.63;;;;;;;14.47;100.00;95765.53;1045349;28;20025;-74
2023/06/11 01:04:07;;;;;;;10.73;8.15;;;;;;;14.47;100.00;95754.19;1045308;28;20028;-75
2023/06/11 01:04:39;;;;;;;7.90;7.10;;;;;;;14.48;100.00;95761.03;1042516;28;20037;-74
2023/06/11 01:05:10;;;;;;;14.77;8.35;;;;;;;14.45;100.00;95769.53;1041894;28;20036;-74
2023/06/11 01:05:44;;;;;;;9.35;7.93;;;;;;;14.42;100.00;95762.97;1036224;28;20021;-74
2023/06/11 01:06:17;;;;;;;9.73;7.53;;;;;;;14.46;100.00;95763.19;1038914;28;20036;-74
2023/06/11 01:06:49;;;;;;;10.52;8.25;;;;;;;14.44;100.00;95765.31;1034170;28;20028;-73
2023/06/11 01:07:22;;;;;;;12.27;8.73;;;;;;;14.38;100.00;95759.31;1034060;28;20070;-74
2023/06/11 01:07:55;;;;;;;11.27;7.90;;;;;;;14.41;100.00;95765.88;1026313;28;20504;-74
2023/06/11 01:08:26;;;;;;;9.85;7.82;;;;;;;14.34;100.00;95761.75;1038104;28;20021;-73
2023/06/11 01:08:59;;;;;;;10.20;8.10;;;;;;;14.35;100.00;95762.53;1034971;28;20034;-72
2023/06/11 01:09:29;;;;;;;10.35;7.82;;;;;;;14.37;100.00;95765.69;1046400;28;20086;-73
2023/06/11 01:10:00;;;;;;;10.93;8.30;;;;;;;14.37;100.00;95761.19;1050744;28;20081;-74
2023/06/11 01:10:31;;;;;;;8.65;7.75;;;;;;;14.37;100.00;95763.81;1042178;28;20033;-73
2023/06/11 01:11:02;;;;;;;10.77;7.70;;;;;;;14.38;100.00;95772.53;1041272;28;20502;-74
2023/06/11 01:11:35;;;;;;;12.18;8.38;;;;;;;14.38;100.00;95761.97;1038744;28;20029;-73
2023/06/11 01:12:08;;;;;;;9.52;8.13;;;;;;;14.36;100.00;95758.84;1046475;28;20516;-73
2023/06/11 01:12:38;;;;;;;10.07;8.02;;;;;;;14.34;100.00;95761.75;1046840;28;20071;-74
2023/06/11 01:13:09;;;;;;;10.77;8.27;;;;;;;14.26;100.00;95754.47;1042360;28;20025;-73
2023/06/11 01:13:39;;;;;;;10.40;8.48;;;;;;;14.33;100.00;95768.09;1030297;28;20022;-74
2023/06/11 01:14:13;;;;;;;9.32;7.95;;;;;;;14.32;100.00;95766.53;1031737;28;20495;-74
2023/06/11 01:14:43;;;;;;;12.57;9.00;;;;;;;14.32;100.00;95763.13;1030527;28;20018;-74
2023/06/11 01:15:14;;;;;;;9.23;7.65;;;;;;;14.28;100.00;95756.81;1031023;28;20037;-75
2023/06/11 01:15:45;;;;;;;15.45;8.93;;;;;;;14.31;100.00;95769.44;1034618;28;20030;-76
2023/06/11 01:16:24;;;;;;;10.27;9.10;;;;;;;14.26;100.00;95757.13;1034315;28;20049;-73
2023/06/11 01:17:15;;;;;;;9.73;7.95;;;;;;;14.29;100.00;95761.06;1035631;28;20080;-73
2023/06/11 01:18:18;;;;;;;10.15;8.05;;;;;;;14.29;100.00;95769.75;1047113;28;20055;-73
2023/06/11 01:19:12;;;;;;;10.02;7.28;;;;;;;14.28;100.00;95768.16;1030677;28;20069;-74
2023/06/11 01:20:12;;;;;;;10.82;7.57;;;;;;;14.27;100.00;95769.25;1045321;28;20095;-74
2023/06/11 01:20:45;;;;;;;10.45;7.93;;;;;;;14.25;100.00;95766.13;1036684;28;20050;-74
2023/06/11 01:21:17;;;;;;;10.32;8.02;;;;;;;14.25;100.00;95766.13;1033429;28;20275;-76
2023/06/11 01:21:50;;;;;;;11.93;8.10;;;;;;;14.24;100.00;95767.16;1038379;28;20080;-74
2023/06/11 01:22:49;;;;;;;11.45;8.50;;;;;;;14.22;100.00;95769.31;1042277;28;20692;-74
2023/06/11 01:23:47;;;;;;;9.55;7.75;;;;;;;14.22;100.00;95766.69;1037707;28;20120;-73
2023/06/11 01:24:21;;;;;;;12.15;7.95;;;;;;;14.22;100.00;95757.97;1046676;28;20097;-73
2023/06/11 01:25:03;;;;;;;9.82;7.70;;;;;;;14.24;100.00;95764.53;1049348;28;20437;-73
2023/06/11 01:25:44;;;;;;;10.77;8.55;;;;;;;14.21;100.00;95765.09;1044903;28;20024;-74
2023/06/11 01:26:29;;;;;;;9.75;7.88;;;;;;;14.22;100.00;95763.22;1038210;28;20022;-74
2023/06/11 01:27:09;;;;;;;9.75;8.52;;;;;;;14.21;100.00;95765.09;1034333;28;20033;-75
2023/06/11 01:28:07;;;;;;;9.70;7.72;;;;;;;14.20;100.00;95763.53;1034173;28;20064;-73
2023/06/11 01:28:37;;;;;;;9.65;7.40;;;;;;;14.18;100.00;95763.03;1043431;28;20024;-75
2023/06/11 01:29:08;;;;;;;10.60;8.65;;;;;;;14.15;100.00;95759.13;1042192;28;20483;-73
2023/06/11 01:29:45;;;;;;;11.45;8.70;;;;;;;14.13;100.00;95760.47;1038285;28;20098;-74
2023/06/11 01:30:17;;;;;;;10.75;7.55;;;;;;;14.14;100.00;95754.88;1034329;28;20021;-73
2023/06/11 01:30:49;;;;;;;10.90;8.23;;;;;;;14.15;100.00;95760.94;1041031;28;20025;-73
2023/06/11 01:31:20;;;;;;;11.68;8.13;;;;;;;14.14;100.00;95762.03;1033369;28;20032;-73
2023/06/11 01:31:50;;;;;;;11.30;8.88;;;;;;;14.16;100.00;95765.19;1030256;28;20567;-74
2023/06/11 01:32:23;;;;;;;13.93;9.63;;;;;;;14.12;100.00;95761.53;1030542;28;20034;-74
2023/06/11 01:32:55;;;;;;;11.13;8.70;;;;;;;14.16;100.00;95765.19;1042479;28;20029;-74
2023/06/11 01:33:26;;;;;;;12.32;9.35;;;;;;;14.18;100.00;95760.38;1036420;28;20038;-74
2023/06/11 01:33:57;;;;;;;12.32;8.93;;;;;;;14.11;100.00;95758.09;1038374;28;20029;-76
2023/06/11 01:34:27;;;;;;;12.43;8.57;;;;;;;14.15;100.00;95761.75;1038330;28;20025;-73
2023/06/11 01:35:04;;;;;;;11.35;8.85;;;;;;;14.11;100.00;95759.94;1038694;28;20040;-73
2023/06/11 01:35:35;;;;;;;10.73;8.25;;;;;;;14.16;100.00;95759.91;1038086;28;20068;-74
2023/06/11 01:36:06;;;;;;;10.00;8.20;;;;;;;14.14;100.00;95767.31;1035336;28;20099;-73
2023/06/11 01:36:37;;;;;;;10.25;8.85;;;;;;;14.12;100.00;95762.31;1038230;28;20121;-73
2023/06/11 01:37:11;;;;;;;10.73;8.18;;;;;;;14.14;100.00;95762.03;1042541;28;20024;-74
2023/06/11 01:37:45;;;;;;;10.52;8.63;;;;;;;14.13;100.00;95763.88;1043335;28;20095;-73
2023/06/11 01:38:15;;;;;;;10.27;8.75;;;;;;;14.14;100.00;95764.66;1046673;28;20097;-74
2023/06/11 01:38:46;;;;;;;11.50;9.05;;;;;;;14.14;100.00;95764.66;1041248;28;20515;-73
2023/06/11 01:39:16;;;;;;;13.60;8.60;;;;;;;14.14;100.00;95772.56;1043149;28;20029;-74
2023/06/11 01:39:47;;;;;;;11.07;7.85;;;;;;;14.13;100.00;95765.75;1046477;28;20024;-73
2023/06/11 01:40:17;;;;;;;12.07;8.43;;;;;;;14.14;100.00;95769.94;1047412;28;20078;-74
2023/06/11 01:40:48;;;;;;;10.88;8.88;;;;;;;14.12;100.00;95764.97;1046792;28;20043;-74
2023/06/11 01:41:18;;;;;;;10.02;8.63;;;;;;;14.09;100.00;95764.75;1041528;28;20029;-73
2023/06/11 01:41:49;;;;;;;12.57;8.70;;;;;;;14.08;100.00;95763.16;1038083;28;20033;-74
2023/06/11 01:42:20;;;;;;;10.43;8.75;;;;;;;14.05;100.00;95756.63;1038317;28;20039;-74
2023/06/11 01:42:50;;;;;;;13.85;8.52;;;;;;;13.94;100.00;95736.69;1034316;28;20609;-75
2023/06/11 01:43:23;;;;;;;11.60;9.02;;;;;;;14.09;100.00;95765.53;1025783;28;20031;-74
2023/06/11 01:43:53;;;;;;;10.82;8.90;;;;;;;14.06;100.00;95757.41;1026455;28;20638;-74
2023/06/11 01:44:25;;;;;;;11.05;8.40;;;;;;;14.10;100.00;95761.81;1038176;28;20087;-74
2023/06/11 01:44:55;;;;;;;10.00;8.32;;;;;;;14.10;100.00;95761.81;1038776;28;20029;-73
2023/06/11 01:45:26;;;;;;;10.95;9.13;;;;;;;14.09;100.00;95760.25;1036251;28;20044;-73
2023/06/11 01:45:58;;;;;;;11.30;8.65;;;;;;;14.10;100.00;95766.31;1041490;28;20441;-74
2023/06/11 01:46:29;;;;;;;10.85;9.13;;;;;;;14.09;100.00;95767.38;1050510;28;20043;-73
2023/06/11 01:46:59;;;;;;;11.52;8.65;;;;;;;14.09;100.00;95762.09;1050365;28;20059;-74
2023/06/11 01:47:30;;;;;;;11.27;8.55;;;;;;;14.11;100.00;95767.88;1041890;28;20036;-74
2023/06/11 01:48:00;;;;;;;12.75;9.00;;;;;;;14.10;100.00;95772.38;1042244;28;20221;-73
2023/06/11 01:48:31;;;;;;;9.88;8.50;;;;;;;14.10;100.00;95764.44;1042035;28;20490;-74
2023/06/11 01:49:02;;;;;;;13.23;8.75;;;;;;;14.11;100.00;95767.88;1034255;28;20063;-73
2023/06/11 01:49:32;;;;;;;13.52;9.15;;;;;;;14.08;100.00;95771.06;1038210;28;20029;-73
2023/06/11 01:50:03;;;;;;;10.48;9.13;;;;;;;14.07;100.00;95772.94;1038325;28;20564;-73
2023/06/11 01:50:33;;;;;;;13.00;9.05;;;;;;;14.09;100.00;95764.75;1045653;28;20534;-74
2023/06/11 01:51:04;;;;;;;11.43;9.40;;;;;;;14.02;100.00;95756.41;1041792;28;20037;-73
2023/06/11 01:51:35;;;;;;;10.27;8.80;;;;;;;14.06;100.00;95771.38;1029969;28;20089;-74
2023/06/11 01:52:06;;;;;;;11.80;9.15;;;;;;;14.05;100.00;95769.00;1032430;28;20033;-74
2023/06/11 01:52:38;;;;;;;12.90;9.43;;;;;;;14.03;100.00;95771.16;1042708;28;20247;-73
2023/06/11 01:53:09;;;;;;;11.63;8.75;;;;;;;14.00;100.00;95763.78;1047026;28;20058;-74
2023/06/11 01:53:41;;;;;;;10.45;8.90;;;;;;;14.02;100.00;95767.72;1046932;28;20032;-73
2023/06/11 01:54:12;;;;;;;12.50;8.88;;;;;;;13.97;100.00;95762.50;1041362;28;20576;-75
2023/06/11 01:54:42;;;;;;;12.13;8.80;;;;;;;14.01;100.00;95768.00;1038122;28;20032;-73
2023/06/11 01:55:12;;;;;;;10.68;9.27;;;;;;;13.98;100.00;95773.84;1038116;28;20026;-74
2023/06/11 01:55:43;;;;;;;13.60;9.40;;;;;;;13.95;100.00;95767.28;1037854;28;20511;-74
2023/06/11 01:56:13;;;;;;;13.55;8.98;;;;;;;14.00;100.00;95769.06;1038045;28;20044;-75
2023/06/11 01:56:44;;;;;;;11.30;8.52;;;;;;;13.98;100.00;95771.19;1034104;28;20034;-73
2023/06/11 01:57:15;;;;;;;14.95;8.93;;;;;;;13.96;100.00;95776.00;1042066;28;20849;-74
2023/06/11 01:57:46;;;;;;;11.60;9.32;;;;;;;13.95;100.00;95774.41;1038034;28;20029;-73
2023/06/11 01:58:17;;;;;;;11.88;8.68;;;;;;;13.88;100.00;95765.00;1038369;28;20132;-75
2023/06/11 01:58:47;;;;;;;10.32;8.80;;;;;;;13.95;100.00;95769.13;1039091;28;20029;-74
2023/06/11 01:59:20;;;;;;;11.63;9.25;;;;;;;13.94;100.00;95780.75;1034420;28;20030;-73
2023/06/11 01:59:51;;;;;;;12.00;9.13;;;;;;;13.94;100.00;95772.84;1034213;28;20109;-73
2023/06/11 02:00:21;;;;;;;10.20;8.73;;;;;;;13.94;100.00;95783.38;1034992;28;20026;-74
2023/06/11 02:00:53;;;;;;;14.32;10.15;;;;;;;13.95;100.00;95782.31;1041870;28;20083;-72
2023/06/11 02:01:24;;;;;;;10.98;8.88;;;;;;;13.94;100.00;95781.53;1040465;28;20029;-73
2023/06/11 02:01:55;;;;;;;11.10;8.70;;;;;;;13.94;100.00;95783.38;1044742;28;20025;-73
2023/06/11 02:02:28;;;;;;;11.90;9.40;;;;;;;13.93;100.00;95779.97;1042412;28;20502;-72
2023/06/11 02:03:01;;;;;;;12.25;9.07;;;;;;;13.93;100.00;95787.09;1042199;28;20111;-75
2023/06/11 02:03:32;;;;;;;13.38;8.85;;;;;;;13.91;100.00;95779.47;1041215;28;20120;-73
2023/06/11 02:04:03;;;;;;;12.00;9.10;;;;;;;13.94;100.00;95783.38;1042165;28;20045;-74
2023/06/11 02:04:33;;;;;;;11.63;8.75;;;;;;;13.95;100.00;95779.69;1042491;28;20033;-73
2023/06/11 02:05:05;;;;;;;10.20;8.02;;;;;;;13.83;100.00;95765.03;1046462;28;20028;-74
2023/06/11 02:05:35;;;;;;;10.15;7.93;;;;;;;13.93;100.00;95784.47;1045174;28;20029;-73
2023/06/11 02:06:07;;;;;;;10.65;8.52;;;;;;;13.85;100.00;95776.13;1046518;28;20036;-73
2023/06/11 02:06:37;;;;;;;11.40;8.85;;;;;;;13.90;100.00;95778.69;1042503;28;20064;-74
2023/06/11 02:07:08;;;;;;;10.45;8.80;;;;;;;13.85;100.00;95773.47;1046368;28;20600;-73
2023/06/11 02:07:38;;;;;;;13.48;9.15;;;;;;;13.88;100.00;95780.03;1042341;28;20414;-74
2023/06/11 02:08:09;;;;;;;15.13;9.77;;;;;;;13.87;100.00;95778.47;1042345;28;20036;-74
2023/06/11 02:08:40;;;;;;;12.77;9.13;;;;;;;13.86;100.00;95777.69;1042320;28;20140;-73
2023/06/11 02:09:10;;;;;;;11.43;8.93;;;;;;;13.85;100.00;95777.97;1043601;28;20041;-73
2023/06/11 02:09:41;;;;;;;11.88;8.52;;;;;;;13.86;100.00;95780.31;1038237;28;20026;-71
2023/06/11 02:10:11;;;;;;;11.95;9.38;;;;;;;13.85;100.00;95781.38;1042310;28;20091;-74
2023/06/11 02:10:43;;;;;;;11.40;9.18;;;;;;;13.83;100.00;95783.50;1037998;28;20027;-74
2023/06/11 02:11:13;;;;;;;11.20;9.30;;;;;;;13.82;100.00;95771.41;1033611;28;20431;-73
2023/06/11 02:11:44;;;;;;;12.88;9.18;;;;;;;13.82;100.00;95770.63;1042338;28;20029;-73
2023/06/11 02:12:14;;;;;;;12.23;8.57;;;;;;;13.83;100.00;95780.88;1046559;28;20082;-74
2023/06/11 02:12:45;;;;;;;12.82;9.35;;;;;;;13.81;100.00;95769.81;1054679;28;20035;-75
2023/06/11 02:13:15;;;;;;;12.38;9.10;;;;;;;13.81;100.00;95772.44;1042195;28;20025;-74
2023/06/11 02:13:46;;;;;;;10.27;8.93;;;;;;;13.81;100.00;95774.31;1038008;28;20112;-73
2023/06/11 02:14:16;;;;;;;10.75;9.27;;;;;;;13.80;100.00;95773.53;1042069;28;20540;-73
2023/06/11 02:14:47;;;;;;;11.63;9.32;;;;;;;13.79;100.00;95777.22;1029836;28;20042;-73
2023/06/11 02:15:18;;;;;;;10.98;8.55;;;;;;;13.78;100.00;95770.41;1038252;28;20132;-74
2023/06/11 02:15:49;;;;;;;12.40;8.40;;;;;;;13.79;100.00;95776.44;1033876;28;20402;-73
2023/06/11 02:16:19;;;;;;;10.13;9.00;;;;;;;13.74;100.00;95766.72;1038161;28;20034;-74
2023/06/11 02:16:50;;;;;;;11.15;8.50;;;;;;;13.78;100.00;95773.03;1033894;28;20161;-74
2023/06/11 02:17:20;;;;;;;10.20;8.30;;;;;;;13.75;100.00;95773.59;1029873;28;20030;-74
2023/06/11 02:17:51;;;;;;;12.63;9.00;;;;;;;13.77;100.00;95778.56;1038156;28;20145;-74
2023/06/11 02:18:21;;;;;;;13.25;8.65;;;;;;;13.78;100.00;95769.59;1034100;28;20121;-74
2023/06/11 02:18:52;;;;;;;10.85;8.63;;;;;;;13.73;100.00;95767.81;1041972;28;20051;-74
2023/06/11 02:19:22;;;;;;;11.32;8.70;;;;;;;13.75;100.00;95770.97;1042275;28;20530;-73
2023/06/11 02:19:53;;;;;;;10.90;8.40;;;;;;;13.76;100.00;95775.16;1026804;28;20030;-74
2023/06/11 02:20:23;;;;;;;9.82;8.80;;;;;;;13.71;100.00;95763.88;1026102;28;20542;-74
2023/06/11 02:20:54;;;;;;;12.50;8.82;;;;;;;13.75;100.00;95775.41;1038139;28;20026;-74
2023/06/11 02:21:24;;;;;;;11.55;8.38;;;;;;;13.68;100.00;95770.50;1034890;28;20034;-74
2023/06/11 02:21:55;;;;;;;10.68;9.02;;;;;;;13.74;100.00;95781.78;1038499;28;20025;-73
2023/06/11 02:22:25;;;;;;;10.75;8.27;;;;;;;13.72;100.00;95773.38;1029115;28;20038;-73
2023/06/11 02:22:56;;;;;;;11.90;9.35;;;;;;;13.70;100.00;95768.38;1030546;28;20026;-73
2023/06/11 02:23:28;;;;;;;11.85;8.85;;;;;;;13.73;100.00;95778.34;1030605;28;20500;-74
2023/06/11 02:23:59;;;;;;;14.95;8.80;;;;;;;13.73;100.00;95772.31;1031437;28;20034;-73
2023/06/11 02:24:29;;;;;;;13.85;9.52;;;;;;;13.73;100.00;95778.34;1038772;28;20030;-74
2023/06/11 02:25:00;;;;;;;12.85;8.82;;;;;;;13.72;100.00;95776.78;1041908;28;20037;-74
2023/06/11 02:25:30;;;;;;;12.20;9.43;;;;;;;13.70;100.00;95778.91;1038483;28;20030;-74
2023/06/11 02:26:01;;;;;;;11.13;8.68;;;;;;;13.71;100.00;95785.75;1034733;28;20105;-73
2023/06/11 02:26:31;;;;;;;11.35;8.77;;;;;;;13.71;100.00;95775.19;1044296;28;20445;-74
2023/06/11 02:27:02;;;;;;;14.85;9.15;;;;;;;13.66;100.00;95762.09;1046985;28;20126;-73
2023/06/11 02:27:32;;;;;;;12.45;8.98;;;;;;;13.72;100.00;95779.44;1046842;28;20024;-74
2023/06/11 02:28:05;;;;;;;10.30;8.60;;;;;;;13.72;100.00;95782.06;1042786;28;20112;-73
2023/06/11 02:28:35;;;;;;;12.07;9.48;;;;;;;13.72;100.00;95774.16;1043092;28;20029;-74